createdAt,value
2018-07-05T00:02:10.288Z,24.01
2018-07-05T00:04:48.838Z,23.90
2018-07-05T00:07:27.502Z,23.84
2018-07-05T00:10:06.122Z,23.75
2018-07-05T00:12:44.696Z,23.72
2018-07-05T00:15:23.250Z,23.67
2018-07-05T00:18:01.885Z,23.61
2018-07-05T00:20:40.587Z,23.55
2018-07-05T00:23:19.255Z,23.52
2018-07-05T00:25:57.910Z,23.49
2018-07-05T00:28:36.538Z,23.45
2018-07-05T00:31:15.082Z,23.41
2018-07-05T00:33:53.595Z,23.36
2018-07-05T00:36:32.170Z,23.32
2018-07-05T00:39:10.889Z,23.25
2018-07-05T00:41:49.605Z,23.22
2018-07-05T00:44:28.249Z,23.21
2018-07-05T00:47:06.842Z,23.21
2018-07-05T00:49:45.543Z,23.15
2018-07-05T00:52:24.199Z,23.14
2018-07-05T00:55:02.901Z,23.10
2018-07-05T00:57:41.702Z,23.06
2018-07-05T01:00:20.439Z,22.93
2018-07-05T01:02:59.146Z,22.67
2018-07-05T01:05:37.719Z,22.49
2018-07-05T01:08:16.379Z,22.45
2018-07-05T01:10:55.038Z,22.46
2018-07-05T01:13:33.845Z,22.57
2018-07-05T01:16:12.570Z,22.63
2018-07-05T01:18:51.114Z,22.67
2018-07-05T01:21:29.618Z,22.65
2018-07-05T01:24:08.213Z,22.64
2018-07-05T01:26:46.761Z,22.61
2018-07-05T01:29:25.483Z,22.58
2018-07-05T01:32:04.174Z,22.58
2018-07-05T01:34:42.911Z,22.55
2018-07-05T01:37:21.462Z,22.52
2018-07-05T01:40:00.055Z,22.49
2018-07-05T01:42:38.635Z,22.48
2018-07-05T01:45:17.266Z,22.49
2018-07-05T01:47:55.924Z,22.48
2018-07-05T01:50:34.606Z,22.48
2018-07-05T01:53:13.305Z,22.44
2018-07-05T01:55:51.923Z,22.41
2018-07-05T01:58:30.571Z,22.39
2018-07-05T02:01:09.246Z,22.36
2018-07-05T02:03:47.827Z,22.33
2018-07-05T02:06:26.431Z,22.24
2018-07-05T02:09:05.081Z,22.19
2018-07-05T02:11:43.786Z,22.20
2018-07-05T02:14:22.418Z,22.17
2018-07-05T02:17:01.067Z,22.09
2018-07-05T02:19:39.700Z,22.01
2018-07-05T02:22:18.377Z,21.94
2018-07-05T02:24:57.066Z,21.86
2018-07-05T02:27:35.642Z,21.82
2018-07-05T02:30:14.273Z,21.83
2018-07-05T02:32:52.954Z,21.79
2018-07-05T02:35:31.597Z,21.78
2018-07-05T02:38:15.861Z,21.76
2018-07-05T02:40:54.414Z,21.66
2018-07-05T02:43:33.023Z,21.62
2018-07-05T02:46:11.926Z,21.61
2018-07-05T02:48:50.583Z,21.55
2018-07-05T02:51:29.222Z,21.49
2018-07-05T02:54:07.872Z,21.44
2018-07-05T02:56:46.421Z,21.36
2018-07-05T02:59:25.071Z,21.32
2018-07-05T03:02:03.638Z,21.32
2018-07-05T03:04:42.201Z,21.24
2018-07-05T03:07:20.808Z,21.22
2018-07-05T03:09:59.387Z,21.20
2018-07-05T03:12:37.922Z,21.17
2018-07-05T03:15:16.511Z,21.13
2018-07-05T03:17:55.257Z,21.13
2018-07-05T03:20:33.829Z,21.12
2018-07-05T03:23:12.361Z,21.17
2018-07-05T03:25:50.977Z,21.19
2018-07-05T03:28:29.689Z,21.04
2018-07-05T03:31:08.286Z,20.88
2018-07-05T03:33:46.834Z,20.92
2018-07-05T03:36:25.441Z,20.95
2018-07-05T03:39:04.210Z,21.00
2018-07-05T03:41:42.870Z,21.03
2018-07-05T03:44:21.470Z,21.00
2018-07-05T03:47:00.047Z,21.00
2018-07-05T03:49:38.657Z,21.00
2018-07-05T03:52:17.246Z,21.00
2018-07-05T03:54:55.841Z,21.02
2018-07-05T03:57:34.454Z,21.00
2018-07-05T04:00:13.227Z,20.96
2018-07-05T04:02:51.830Z,20.94
2018-07-05T04:05:30.409Z,20.95
2018-07-05T04:08:09.035Z,20.97
2018-07-05T04:10:47.733Z,20.95
2018-07-05T04:13:26.385Z,20.99
2018-07-05T04:16:04.986Z,20.99
2018-07-05T04:18:43.638Z,21.02
2018-07-05T04:21:22.322Z,20.99
2018-07-05T04:24:01.043Z,21.00
2018-07-05T04:26:39.603Z,21.05
2018-07-05T04:29:18.233Z,21.11
2018-07-05T04:31:56.834Z,21.18
2018-07-05T04:34:35.475Z,21.19
2018-07-05T04:37:14.216Z,21.23
2018-07-05T04:39:52.890Z,21.28
2018-07-05T04:42:31.688Z,21.36
2018-07-05T04:45:10.374Z,21.50
2018-07-05T04:47:49.144Z,21.57
2018-07-05T04:50:27.859Z,21.68
2018-07-05T04:53:06.659Z,21.80
2018-07-05T04:55:45.371Z,21.93
2018-07-05T04:58:23.926Z,22.05
2018-07-05T05:01:02.546Z,22.17
2018-07-05T05:03:41.154Z,22.28
2018-07-05T05:06:19.778Z,22.37
2018-07-05T05:08:58.516Z,22.49
2018-07-05T05:11:37.234Z,22.56
2018-07-05T05:14:15.918Z,22.64
2018-07-05T05:16:54.713Z,22.70
2018-07-05T05:19:33.554Z,22.80
2018-07-05T05:22:12.393Z,22.86
2018-07-05T05:24:51.087Z,22.93
2018-07-05T05:27:29.809Z,22.99
2018-07-05T05:30:08.807Z,23.00
2018-07-05T05:32:47.562Z,23.03
2018-07-05T05:35:26.351Z,23.14
2018-07-05T05:38:05.083Z,23.25
2018-07-05T05:40:43.767Z,23.32
2018-07-05T05:43:22.483Z,23.35
2018-07-05T05:46:01.174Z,23.37
2018-07-05T05:48:39.987Z,23.51
2018-07-05T05:51:18.753Z,23.67
2018-07-05T05:53:57.720Z,23.85
2018-07-05T05:56:36.628Z,24.01
2018-07-05T05:59:16.670Z,24.05
2018-07-05T06:01:55.347Z,24.06
2018-07-05T06:04:34.080Z,24.27
2018-07-05T06:07:12.955Z,24.42
2018-07-05T06:09:51.654Z,24.50
2018-07-05T06:12:30.462Z,24.65
2018-07-05T06:15:09.548Z,24.72
2018-07-05T06:17:48.418Z,24.86
2018-07-05T06:20:27.173Z,25.08
2018-07-05T06:23:05.987Z,25.07
2018-07-05T06:25:44.818Z,25.19
2018-07-05T06:28:23.697Z,25.29
2018-07-05T06:31:02.632Z,25.41
2018-07-05T06:33:41.427Z,25.40
2018-07-05T06:36:20.183Z,25.37
2018-07-05T06:38:58.986Z,25.57
2018-07-05T06:41:37.718Z,25.69
2018-07-05T06:44:16.439Z,26.00
2018-07-05T06:46:55.361Z,26.06
2018-07-05T06:49:34.287Z,26.17
2018-07-05T06:52:13.139Z,26.23
2018-07-05T06:54:51.951Z,26.36
2018-07-05T06:57:30.759Z,26.42
2018-07-05T07:00:09.459Z,26.67
2018-07-05T07:02:48.218Z,26.64
2018-07-05T07:05:27.897Z,26.84
2018-07-05T07:08:06.621Z,26.97
2018-07-05T07:10:45.218Z,27.09
2018-07-05T07:13:23.954Z,26.96
2018-07-05T07:16:02.733Z,26.87
2018-07-05T07:18:41.616Z,27.16
2018-07-05T07:21:20.323Z,27.09
2018-07-05T07:23:59.171Z,27.11
2018-07-05T07:26:38.767Z,27.32
2018-07-05T07:29:17.683Z,27.56
2018-07-05T07:31:56.463Z,27.66
2018-07-05T07:34:35.242Z,27.85
2018-07-05T07:37:14.019Z,27.94
2018-07-05T07:39:52.844Z,28.14
2018-07-05T07:42:19.177Z,28.34
2018-07-05T07:44:45.523Z,28.45
2018-07-05T07:47:11.942Z,28.61
2018-07-05T07:49:38.266Z,28.75
2018-07-05T07:52:04.602Z,28.91
2018-07-05T07:54:30.964Z,29.06
2018-07-05T07:56:57.313Z,29.08
2018-07-05T07:59:23.656Z,29.25
2018-07-05T08:01:50.030Z,29.42
2018-07-05T08:04:16.357Z,29.75
2018-07-05T08:06:42.686Z,29.78
2018-07-05T08:09:09.082Z,29.64
2018-07-05T08:11:35.412Z,29.74
2018-07-05T08:14:01.778Z,30.07
2018-07-05T08:16:28.134Z,30.21
2018-07-05T08:18:54.480Z,30.41
2018-07-05T08:21:20.805Z,30.43
2018-07-05T08:23:47.162Z,30.81
2018-07-05T08:26:13.494Z,30.64
2018-07-05T08:28:39.834Z,30.55
2018-07-05T08:31:06.202Z,30.29
2018-07-05T08:33:32.551Z,30.14
2018-07-05T08:35:58.887Z,30.45
2018-07-05T08:38:25.250Z,30.73
2018-07-05T08:40:51.570Z,30.83
2018-07-05T08:43:17.922Z,31.23
2018-07-05T08:45:44.298Z,31.73
2018-07-05T08:48:10.622Z,31.85
2018-07-05T08:50:36.951Z,31.79
2018-07-05T08:53:03.327Z,32.04
2018-07-05T08:55:29.685Z,32.33
2018-07-05T08:57:56.014Z,32.57
2018-07-05T09:00:22.379Z,32.68
2018-07-05T09:02:48.720Z,32.99
2018-07-05T09:05:15.113Z,33.04
2018-07-05T09:07:41.454Z,33.33
2018-07-05T09:10:07.782Z,33.33
2018-07-05T09:12:34.109Z,33.27
2018-07-05T09:15:00.470Z,33.68
2018-07-05T09:17:26.815Z,34.01
2018-07-05T09:19:53.178Z,34.17
2018-07-05T09:22:19.542Z,34.48
2018-07-05T09:24:45.870Z,34.67
2018-07-05T09:27:12.222Z,34.31
2018-07-05T09:29:38.589Z,34.43
2018-07-05T09:32:04.936Z,34.33
2018-07-05T09:34:31.278Z,34.70
2018-07-05T09:36:57.655Z,34.82
2018-07-05T09:39:24.001Z,34.74
2018-07-05T09:41:50.337Z,35.03
2018-07-05T09:44:16.745Z,35.04
2018-07-05T09:46:43.090Z,35.33
2018-07-05T09:49:09.420Z,35.86
2018-07-05T09:51:35.798Z,35.93
2018-07-05T09:54:02.790Z,36.08
2018-07-05T09:56:29.175Z,36.38
2018-07-05T09:58:55.538Z,36.64
2018-07-05T10:01:21.874Z,37.01
2018-07-05T10:03:48.358Z,37.12
2018-07-05T10:06:14.616Z,36.88
2018-07-05T10:08:40.958Z,36.71
2018-07-05T10:11:07.291Z,36.97
2018-07-05T10:13:33.785Z,37.05
2018-07-05T10:16:00.026Z,37.15
2018-07-05T10:18:26.362Z,37.80
2018-07-05T10:20:52.731Z,38.13
2018-07-05T10:23:19.070Z,37.74
2018-07-05T10:25:45.401Z,37.30
2018-07-05T10:28:11.746Z,37.52
2018-07-05T10:30:50.606Z,37.76
2018-07-05T10:33:29.567Z,38.27
2018-07-05T10:35:55.932Z,38.50
2018-07-05T10:38:22.269Z,38.36
2018-07-05T10:41:01.118Z,37.62
2018-07-05T10:43:40.087Z,36.73
2018-07-05T10:46:18.766Z,36.55
2018-07-05T10:48:57.534Z,37.37
2018-07-05T10:51:36.334Z,37.66
2018-07-05T10:54:15.176Z,38.26
2018-07-05T10:56:53.826Z,38.21
2018-07-05T10:59:32.594Z,38.57
2018-07-05T11:02:11.344Z,38.55
2018-07-05T11:04:50.132Z,38.56
2018-07-05T11:07:28.912Z,38.99
2018-07-05T11:10:07.859Z,39.41
2018-07-05T11:12:46.695Z,39.42
2018-07-05T11:15:25.420Z,39.86
2018-07-05T11:18:04.195Z,40.38
2018-07-05T11:20:43.143Z,41.23
2018-07-05T11:23:21.882Z,41.67
2018-07-05T11:26:00.637Z,41.82
2018-07-05T11:28:39.473Z,41.41
2018-07-05T11:31:18.279Z,41.53
2018-07-05T11:33:57.175Z,41.64
2018-07-05T11:36:35.891Z,42.09
2018-07-05T11:39:14.680Z,41.45
2018-07-05T11:41:53.431Z,40.90
2018-07-05T11:44:32.134Z,42.20
2018-07-05T11:47:10.882Z,43.08
2018-07-05T11:49:49.662Z,43.66
2018-07-05T11:52:28.539Z,43.83
2018-07-05T11:55:07.332Z,43.32
2018-07-05T11:57:46.218Z,42.93
2018-07-05T12:00:24.966Z,43.20
2018-07-05T12:03:03.660Z,43.18
2018-07-05T12:05:42.258Z,43.20
2018-07-05T12:08:20.904Z,43.33
2018-07-05T12:10:59.722Z,42.81
2018-07-05T12:13:38.521Z,42.84
2018-07-05T12:16:17.287Z,43.62
2018-07-05T12:18:56.259Z,44.27
2018-07-05T12:21:35.098Z,44.53
2018-07-05T12:24:13.866Z,44.70
2018-07-05T12:26:52.587Z,44.26
2018-07-05T12:29:31.409Z,43.85
2018-07-05T12:32:10.323Z,43.48
2018-07-05T12:34:49.215Z,42.81
2018-07-05T12:37:27.986Z,41.05
2018-07-05T12:40:06.759Z,39.96
2018-07-05T12:42:45.422Z,40.47
2018-07-05T12:45:24.159Z,41.21
2018-07-05T12:48:03.061Z,41.80
2018-07-05T12:50:41.817Z,41.09
2018-07-05T12:53:20.520Z,40.52
2018-07-05T12:55:59.510Z,41.40
2018-07-05T12:58:38.249Z,42.23
2018-07-05T13:01:16.991Z,42.04
2018-07-05T13:03:55.734Z,41.37
2018-07-05T13:06:34.524Z,40.02
2018-07-05T13:09:13.349Z,39.92
2018-07-05T13:11:52.051Z,40.35
2018-07-05T13:14:30.756Z,40.47
2018-07-05T13:17:09.456Z,40.79
2018-07-05T13:19:48.243Z,38.88
2018-07-05T13:22:27.037Z,40.10
2018-07-05T13:25:05.847Z,41.40
2018-07-05T13:27:44.637Z,42.42
2018-07-05T13:30:23.530Z,42.92
2018-07-05T13:33:02.205Z,43.09
2018-07-05T13:35:41.045Z,43.36
2018-07-05T13:38:19.710Z,43.72
2018-07-05T13:40:58.565Z,42.86
2018-07-05T13:43:37.334Z,43.54
2018-07-05T13:46:16.024Z,43.93
2018-07-05T13:48:54.686Z,43.52
2018-07-05T13:51:33.522Z,42.08
2018-07-05T13:54:12.323Z,42.05
2018-07-05T13:56:51.324Z,39.25
2018-07-05T13:59:30.026Z,36.99
2018-07-05T14:02:08.806Z,35.86
2018-07-05T14:04:47.557Z,34.42
2018-07-05T14:07:26.353Z,32.82
2018-07-05T14:10:05.195Z,31.84
2018-07-05T14:12:44.150Z,31.81
2018-07-05T14:15:22.941Z,31.36
2018-07-05T14:18:01.787Z,31.02
2018-07-05T14:20:40.673Z,30.53
2018-07-05T14:23:19.536Z,30.33
2018-07-05T14:25:58.326Z,29.72
2018-07-05T14:28:37.240Z,29.34
2018-07-05T14:31:16.109Z,28.83
2018-07-05T14:33:54.895Z,29.24
2018-07-05T14:36:33.558Z,29.17
2018-07-05T14:39:12.368Z,29.30
2018-07-05T14:41:51.133Z,29.04
2018-07-05T14:44:29.978Z,28.58
2018-07-05T14:47:08.744Z,28.60
2018-07-05T14:49:47.531Z,28.53
2018-07-05T14:52:26.223Z,28.72
2018-07-05T14:55:05.094Z,28.63
2018-07-05T14:57:43.841Z,28.39
2018-07-05T15:00:22.683Z,28.40
2018-07-05T15:03:01.530Z,28.59
2018-07-05T15:05:40.448Z,28.63
2018-07-05T15:08:19.178Z,28.78
2018-07-05T15:10:58.033Z,28.78
2018-07-05T15:13:36.957Z,28.84
2018-07-05T15:16:15.935Z,28.74
2018-07-05T15:18:54.814Z,28.58
2018-07-05T15:21:33.599Z,28.58
2018-07-05T15:24:12.485Z,28.68
2018-07-05T15:26:51.189Z,28.49
2018-07-05T15:29:30.007Z,28.41
2018-07-05T15:32:08.723Z,28.57
2018-07-05T15:34:47.518Z,28.53
2018-07-05T15:37:26.338Z,28.43
2018-07-05T15:40:05.102Z,28.61
2018-07-05T15:42:43.914Z,28.81
2018-07-05T15:45:22.718Z,28.86
2018-07-05T15:48:01.602Z,28.87
2018-07-05T15:50:40.391Z,28.87
2018-07-05T15:53:19.230Z,28.89
2018-07-05T15:55:58.130Z,28.78
2018-07-05T15:58:36.909Z,28.79
2018-07-05T16:01:15.814Z,28.55
2018-07-05T16:03:54.825Z,28.53
2018-07-05T16:06:33.547Z,28.41
2018-07-05T16:09:12.267Z,28.44
2018-07-05T16:11:51.234Z,28.42
2018-07-05T16:14:29.966Z,28.35
2018-07-05T16:17:08.826Z,28.32
2018-07-05T16:19:47.591Z,28.32
2018-07-05T16:22:26.361Z,28.34
2018-07-05T16:25:05.131Z,28.36
2018-07-05T16:27:44.184Z,28.36
2018-07-05T16:30:23.069Z,28.38
2018-07-05T16:33:01.871Z,28.38
2018-07-05T16:35:40.994Z,28.36
2018-07-05T16:38:19.859Z,28.38
2018-07-05T16:40:58.677Z,28.27
2018-07-05T16:43:37.488Z,28.24
2018-07-05T16:46:16.198Z,28.18
2018-07-05T16:48:54.911Z,28.25
2018-07-05T16:51:33.594Z,27.95
2018-07-05T16:54:12.331Z,27.87
2018-07-05T16:56:51.371Z,27.65
2018-07-05T16:59:30.169Z,27.54
2018-07-05T17:02:08.871Z,27.52
2018-07-05T17:04:47.818Z,27.50
2018-07-05T17:07:27.199Z,27.30
2018-07-05T17:10:06.110Z,27.08
2018-07-05T17:12:45.275Z,26.87
2018-07-05T17:15:24.090Z,26.72
2018-07-05T17:18:03.022Z,26.55
2018-07-05T17:20:41.634Z,26.60
2018-07-05T17:23:20.481Z,26.49
2018-07-05T17:25:59.503Z,26.41
2018-07-05T17:28:38.365Z,26.63
2018-07-05T17:31:17.134Z,26.52
2018-07-05T17:33:56.276Z,26.39
2018-07-05T17:36:35.119Z,26.34
2018-07-05T17:39:13.775Z,26.19
2018-07-05T17:41:52.472Z,26.23
2018-07-05T17:44:31.298Z,26.31
2018-07-05T17:47:09.916Z,26.34
2018-07-05T17:49:48.860Z,26.32
2018-07-05T17:52:27.749Z,26.20
2018-07-05T17:55:06.744Z,26.40
2018-07-05T17:57:45.628Z,26.36
2018-07-05T18:00:24.385Z,26.29
2018-07-05T18:03:03.123Z,26.26
2018-07-05T18:05:42.054Z,26.18
2018-07-05T18:08:20.938Z,26.13
2018-07-05T18:10:59.870Z,25.92
2018-07-05T18:13:38.746Z,26.06
2018-07-05T18:16:17.677Z,26.02
2018-07-05T18:18:56.598Z,26.00
2018-07-05T18:21:35.350Z,25.92
2018-07-05T18:24:14.134Z,25.72
2018-07-05T18:26:53.779Z,25.76
2018-07-05T18:29:32.600Z,25.69
2018-07-05T18:32:11.471Z,25.65
2018-07-05T18:34:50.147Z,25.89
2018-07-05T18:37:28.828Z,25.96
2018-07-05T18:40:08.847Z,25.94
2018-07-05T18:42:47.537Z,25.94
2018-07-05T18:45:26.184Z,25.96
2018-07-05T18:48:05.073Z,25.91
2018-07-05T18:50:43.792Z,25.72
2018-07-05T18:53:22.563Z,25.57
2018-07-05T18:56:01.179Z,25.51
2018-07-05T18:58:39.847Z,25.43
2018-07-05T19:01:18.462Z,25.25
2018-07-05T19:03:57.295Z,25.22
2018-07-05T19:06:35.904Z,25.08
2018-07-05T19:09:14.615Z,24.92
2018-07-05T19:11:53.370Z,24.71
2018-07-05T19:14:33.026Z,24.55
2018-07-05T19:17:11.622Z,24.13
2018-07-05T19:19:50.199Z,23.82
2018-07-05T19:22:28.909Z,23.60
2018-07-05T19:25:07.726Z,23.57
2018-07-05T19:27:46.947Z,23.60
2018-07-05T19:30:25.578Z,23.56
2018-07-05T19:33:04.252Z,23.58
2018-07-05T19:35:43.092Z,23.52
2018-07-05T19:38:21.731Z,23.39
2018-07-05T19:41:00.313Z,23.30
2018-07-05T19:43:39.075Z,23.25
2018-07-05T19:46:17.739Z,23.30
2018-07-05T19:48:56.328Z,23.30
2018-07-05T19:51:35.043Z,23.16
2018-07-05T19:54:13.743Z,23.03
2018-07-05T19:56:52.511Z,23.12
2018-07-05T19:59:31.059Z,23.15
2018-07-05T20:02:09.763Z,23.01
2018-07-05T20:04:48.438Z,22.91
2018-07-05T20:07:27.037Z,22.85
2018-07-05T20:10:05.639Z,22.81
2018-07-05T20:12:44.247Z,22.80
2018-07-05T20:15:23.011Z,22.90
2018-07-05T20:18:01.603Z,22.80
2018-07-05T20:20:40.371Z,22.76
2018-07-05T20:23:19.184Z,22.62
2018-07-05T20:25:57.887Z,22.56
2018-07-05T20:28:36.659Z,22.53
2018-07-05T20:31:15.411Z,22.50
2018-07-05T20:33:54.103Z,22.57
2018-07-05T20:36:32.807Z,22.50
2018-07-05T20:39:11.386Z,22.50
2018-07-05T20:41:50.266Z,22.56
2018-07-05T20:44:29.062Z,22.48
2018-07-05T20:47:07.681Z,22.43
2018-07-05T20:49:46.286Z,22.56
2018-07-05T20:52:25.044Z,22.68
2018-07-05T20:55:03.700Z,22.83
2018-07-05T20:57:42.454Z,22.76
2018-07-05T21:00:21.039Z,22.79
2018-07-05T21:02:59.701Z,22.76
2018-07-05T21:05:38.335Z,22.62
2018-07-05T21:08:17.053Z,22.54
2018-07-05T21:10:55.750Z,22.53
2018-07-05T21:13:34.530Z,22.42
2018-07-05T21:16:13.163Z,22.57
2018-07-05T21:18:51.791Z,22.58
2018-07-05T21:21:30.484Z,22.59
2018-07-05T21:24:09.189Z,22.58
2018-07-05T21:26:47.922Z,22.42
2018-07-05T21:29:26.693Z,22.35
2018-07-05T21:32:05.278Z,22.38
2018-07-05T21:34:44.002Z,22.44
2018-07-05T21:37:22.758Z,22.48
2018-07-05T21:40:01.317Z,22.52
2018-07-05T21:42:40.037Z,22.54
2018-07-05T21:45:18.716Z,22.39
2018-07-05T21:47:57.293Z,22.59
2018-07-05T21:50:36.060Z,22.45
2018-07-05T21:53:14.630Z,22.54
2018-07-05T21:55:53.254Z,22.55
2018-07-05T21:58:31.803Z,22.53
2018-07-05T22:01:10.409Z,22.50
2018-07-05T22:03:49.023Z,22.46
2018-07-05T22:06:27.687Z,22.55
2018-07-05T22:09:06.410Z,22.48
2018-07-05T22:11:44.976Z,22.45
2018-07-05T22:14:23.702Z,22.50
2018-07-05T22:17:08.033Z,22.49
2018-07-05T22:19:52.362Z,22.47
2018-07-05T22:22:36.737Z,22.41
2018-07-05T22:25:21.059Z,22.31
2018-07-05T22:28:05.274Z,22.12
2018-07-05T22:30:49.489Z,22.23
2018-07-05T22:33:27.994Z,22.18
2018-07-05T22:36:06.651Z,22.05
2018-07-05T22:38:45.273Z,22.02
2018-07-05T22:41:23.914Z,22.16
2018-07-05T22:44:02.542Z,22.35
2018-07-05T22:46:41.166Z,22.32
2018-07-05T22:49:19.743Z,22.59
2018-07-05T22:51:58.343Z,22.60
2018-07-05T22:54:37.070Z,22.59
2018-07-05T22:57:15.698Z,22.70
2018-07-05T22:59:54.277Z,22.85
2018-07-05T23:02:32.897Z,22.91
2018-07-05T23:05:11.634Z,22.68
2018-07-05T23:07:50.266Z,22.51
2018-07-05T23:10:28.977Z,22.51
2018-07-05T23:13:07.634Z,22.50
2018-07-05T23:15:46.357Z,22.57
2018-07-05T23:18:25.026Z,22.48
2018-07-05T23:21:03.787Z,22.33
2018-07-05T23:23:42.429Z,22.19
2018-07-05T23:26:21.017Z,22.13
2018-07-05T23:28:59.782Z,22.04
2018-07-05T23:31:38.366Z,22.09
2018-07-05T23:34:16.952Z,22.18
2018-07-05T23:36:55.590Z,21.98
2018-07-05T23:39:34.258Z,21.96
2018-07-05T23:42:12.849Z,22.00
2018-07-05T23:44:51.559Z,21.91
2018-07-05T23:47:30.138Z,21.82
2018-07-05T23:50:08.754Z,21.98
2018-07-05T23:52:47.351Z,22.13
2018-07-05T23:55:25.982Z,22.10
2018-07-05T23:58:04.699Z,22.05
